Time;durP1;ratioP1;P1;durP2;ratioP2;P2;SDS_P1;SDS_P2;PMS_P1;PMS_P2;Temp;Humidity;BMP_temperature;BMP_pressure;BME280_temperature;BME280_humidity;BME280_pressure;Samples;Min_cycle;Max_cycle;Signal;HPM_P1;HPM_P2
2023/01/31 00:00:27;;;;;;;13.53;3.73;;;;;;;;;;5043832;28;20257;-52
2023/01/31 00:02:55;;;;;;;9.70;3.23;;;;;;;;;;5044587;28;20251;-53
2023/01/31 00:05:22;;;;;;;11.27;2.60;;;;;;;;;;5042484;28;20715;-54
2023/01/31 00:07:48;;;;;;;14.47;3.50;;;;;;;;;;5033665;28;20239;-53
2023/01/31 00:10:14;;;;;;;16.57;3.00;;;;;;;;;;5037569;28;20228;-52
2023/01/31 00:12:41;;;;;;;7.10;2.57;;;;;;;;;;5044872;28;20230;-53
2023/01/31 00:15:08;;;;;;;9.60;2.77;;;;;;;;;;5050076;28;20244;-52
2023/01/31 00:17:34;;;;;;;10.13;2.33;;;;;;;;;;5046076;28;20234;-53
2023/01/31 00:20:02;;;;;;;8.90;3.00;;;;;;;;;;5039036;28;20319;-52
2023/01/31 00:22:28;;;;;;;15.13;3.10;;;;;;;;;;5044757;28;20236;-53
2023/01/31 00:24:54;;;;;;;8.37;2.80;;;;;;;;;;5039175;28;20239;-54
2023/01/31 00:27:21;;;;;;;6.43;2.63;;;;;;;;;;5043884;28;20263;-53
2023/01/31 00:29:47;;;;;;;14.67;2.30;;;;;;;;;;5039216;28;20245;-53
2023/01/31 00:32:14;;;;;;;8.93;2.20;;;;;;;;;;5053367;28;20242;-54
2023/01/31 00:34:40;;;;;;;7.70;2.17;;;;;;;;;;5042800;28;20237;-55
2023/01/31 00:37:08;;;;;;;11.73;3.17;;;;;;;;;;5046965;28;20238;-53
2023/01/31 00:39:34;;;;;;;7.73;2.63;;;;;;;;;;5052685;28;20845;-54
2023/01/31 00:42:00;;;;;;;10.13;2.40;;;;;;;;;;5051802;28;20254;-52
2023/01/31 00:44:27;;;;;;;16.33;3.33;;;;;;;;;;5048957;28;20330;-54
2023/01/31 00:46:53;;;;;;;8.60;1.97;;;;;;;;;;5049899;28;20875;-54
2023/01/31 00:49:19;;;;;;;10.07;2.47;;;;;;;;;;5048881;28;20625;-56
2023/01/31 00:51:46;;;;;;;12.50;3.60;;;;;;;;;;5042744;28;20549;-53
2023/01/31 00:54:13;;;;;;;4.17;2.60;;;;;;;;;;5044002;28;20235;-52
2023/01/31 00:56:40;;;;;;;12.30;4.13;;;;;;;;;;5045167;28;20852;-52
2023/01/31 00:59:07;;;;;;;7.73;2.57;;;;;;;;;;5039556;28;20625;-52
2023/01/31 01:01:35;;;;;;;11.13;2.47;;;;;;;;;;5042937;28;20257;-53
2023/01/31 01:04:01;;;;;;;11.13;3.57;;;;;;;;;;5039479;28;20237;-54
2023/01/31 01:06:28;;;;;;;8.10;2.30;;;;;;;;;;5043776;28;20235;-52
2023/01/31 01:08:55;;;;;;;6.10;2.03;;;;;;;;;;5042352;28;20231;-53
2023/01/31 01:11:26;;;;;;;9.57;2.40;;;;;;;;;;5044514;28;20270;-53
2023/01/31 01:13:52;;;;;;;12.93;2.77;;;;;;;;;;5043160;28;20338;-53
2023/01/31 01:16:19;;;;;;;7.07;1.90;;;;;;;;;;5045506;28;20240;-53
2023/01/31 01:18:47;;;;;;;11.33;2.07;;;;;;;;;;5042851;28;20235;-54
2023/01/31 01:21:15;;;;;;;8.20;2.07;;;;;;;;;;5044245;28;20234;-53
2023/01/31 01:23:42;;;;;;;9.57;2.10;;;;;;;;;;5040265;28;20232;-55
2023/01/31 01:26:12;;;;;;;9.90;2.30;;;;;;;;;;5040746;28;20787;-53
2023/01/31 01:28:40;;;;;;;6.90;1.83;;;;;;;;;;5040441;28;20242;-54
2023/01/31 01:31:07;;;;;;;7.07;2.10;;;;;;;;;;5041782;28;20330;-53
2023/01/31 01:33:34;;;;;;;5.40;2.57;;;;;;;;;;5041581;28;20243;-54
2023/01/31 01:36:00;;;;;;;8.07;2.87;;;;;;;;;;5038327;28;20240;-53
2023/01/31 01:38:27;;;;;;;6.57;2.40;;;;;;;;;;5039454;28;20713;-53
2023/01/31 01:40:53;;;;;;;12.17;2.47;;;;;;;;;;5031985;28;20231;-53
2023/01/31 01:43:20;;;;;;;12.47;2.50;;;;;;;;;;5038224;28;20821;-53
2023/01/31 01:45:48;;;;;;;9.90;1.80;;;;;;;;;;5036107;28;20245;-53
2023/01/31 01:48:16;;;;;;;6.73;1.80;;;;;;;;;;5041182;28;20250;-53
2023/01/31 01:50:46;;;;;;;13.60;3.10;;;;;;;;;;5041458;28;20763;-53
2023/01/31 01:53:15;;;;;;;9.90;2.10;;;;;;;;;;5040794;28;20228;-54
2023/01/31 01:55:42;;;;;;;10.27;2.37;;;;;;;;;;5041640;28;20236;-53
2023/01/31 01:58:11;;;;;;;5.77;2.27;;;;;;;;;;5041621;28;20262;-52
2023/01/31 02:00:38;;;;;;;4.83;1.60;;;;;;;;;;5040112;28;20285;-52
2023/01/31 02:03:07;;;;;;;11.03;2.87;;;;;;;;;;5045391;28;20251;-52
2023/01/31 02:05:35;;;;;;;12.30;2.37;;;;;;;;;;5037397;28;20234;-53
2023/01/31 02:08:02;;;;;;;6.10;2.07;;;;;;;;;;5040541;28;20238;-53
2023/01/31 02:10:31;;;;;;;12.40;2.07;;;;;;;;;;5046887;28;20235;-54
2023/01/31 02:12:58;;;;;;;5.87;1.77;;;;;;;;;;5036976;28;20424;-53
2023/01/31 02:15:25;;;;;;;10.47;2.90;;;;;;;;;;5038549;28;20230;-54
2023/01/31 02:17:52;;;;;;;7.97;1.70;;;;;;;;;;5038185;28;21018;-54
2023/01/31 02:20:40;;;;;;;9.60;1.80;;;;;;;;;;5039696;28;20291;-53
2023/01/31 02:23:19;;;;;;;10.77;3.50;;;;;;;;;;5015611;28;20758;-53
2023/01/31 02:26:06;;;;;;;12.93;2.20;;;;;;;;;;5039966;28;20227;-54
2023/01/31 02:28:52;;;;;;;9.33;1.87;;;;;;;;;;5043431;28;20231;-54
2023/01/31 02:31:33;;;;;;;11.93;2.53;;;;;;;;;;5041578;28;20238;-53
2023/01/31 02:34:04;;;;;;;12.80;2.90;;;;;;;;;;5041740;28;20924;-53
2023/01/31 02:36:36;;;;;;;10.83;2.70;;;;;;;;;;5044248;28;20258;-54
2023/01/31 02:39:06;;;;;;;5.93;2.07;;;;;;;;;;5043254;28;20231;-53
2023/01/31 02:41:37;;;;;;;7.67;2.23;;;;;;;;;;5047072;28;20585;-54
2023/01/31 02:46:55;;;;;;;14.90;2.37;;;;;;;;;;5036249;28;20229;-53
2023/01/31 02:49:34;;;;;;;9.20;2.57;;;;;;;;;;5045026;28;20239;-54
2023/01/31 02:52:16;;;;;;;9.23;2.07;;;;;;;;;;5045767;28;20246;-53
2023/01/31 02:57:28;;;;;;;8.77;2.23;;;;;;;;;;5044109;28;20438;-53
2023/01/31 02:59:55;;;;;;;6.33;2.30;;;;;;;;;;5038436;28;20239;-53
2023/01/31 03:02:23;;;;;;;9.07;2.80;;;;;;;;;;5044159;28;20269;-53
2023/01/31 03:04:51;;;;;;;7.07;1.83;;;;;;;;;;5042379;28;20238;-53
2023/01/31 03:07:25;;;;;;;5.53;2.37;;;;;;;;;;5040095;28;20280;-53
2023/01/31 03:09:56;;;;;;;7.20;2.27;;;;;;;;;;5037504;28;20242;-53
2023/01/31 03:12:30;;;;;;;7.33;1.87;;;;;;;;;;5041155;28;20245;-53
2023/01/31 03:15:01;;;;;;;8.57;2.00;;;;;;;;;;5044783;28;20257;-53
2023/01/31 03:17:31;;;;;;;11.40;1.83;;;;;;;;;;5036223;28;20661;-53
2023/01/31 03:20:03;;;;;;;10.23;2.00;;;;;;;;;;5043158;28;20877;-53
2023/01/31 03:22:31;;;;;;;11.70;2.00;;;;;;;;;;5039523;28;20243;-54
2023/01/31 03:24:59;;;;;;;11.80;2.43;;;;;;;;;;5041750;28;20258;-54
2023/01/31 03:27:26;;;;;;;12.10;2.63;;;;;;;;;;5045001;28;20246;-52
2023/01/31 03:29:57;;;;;;;13.17;2.17;;;;;;;;;;5043747;28;20231;-52
2023/01/31 03:32:26;;;;;;;5.23;1.93;;;;;;;;;;5047568;28;20304;-54
2023/01/31 03:34:54;;;;;;;10.20;2.37;;;;;;;;;;5047765;28;20238;-57
2023/01/31 03:37:25;;;;;;;9.03;3.13;;;;;;;;;;5049025;28;20292;-53
2023/01/31 03:39:54;;;;;;;6.03;1.77;;;;;;;;;;5050937;28;20413;-53
2023/01/31 03:42:23;;;;;;;6.67;2.77;;;;;;;;;;5047593;28;20262;-53
2023/01/31 03:44:55;;;;;;;6.43;2.57;;;;;;;;;;5037913;28;20228;-52
2023/01/31 03:47:23;;;;;;;6.60;2.03;;;;;;;;;;5034832;28;20234;-53
2023/01/31 03:49:51;;;;;;;6.13;1.90;;;;;;;;;;5044187;28;20255;-53
2023/01/31 03:52:22;;;;;;;8.20;2.20;;;;;;;;;;5044264;28;20291;-53
2023/01/31 03:54:53;;;;;;;5.53;1.77;;;;;;;;;;5043354;28;20990;-53
2023/01/31 03:57:22;;;;;;;7.93;2.30;;;;;;;;;;5045130;28;20590;-53
2023/01/31 03:59:52;;;;;;;8.00;2.20;;;;;;;;;;5045837;28;20801;-53
2023/01/31 04:02:21;;;;;;;11.83;2.27;;;;;;;;;;5043374;28;20247;-53
2023/01/31 04:04:51;;;;;;;6.00;2.17;;;;;;;;;;5040705;28;20362;-53
2023/01/31 04:07:17;;;;;;;4.87;1.73;;;;;;;;;;5033434;28;20231;-54
2023/01/31 04:09:44;;;;;;;8.03;2.17;;;;;;;;;;5037786;28;20241;-53
2023/01/31 04:12:14;;;;;;;8.83;2.53;;;;;;;;;;5043603;28;20247;-53
2023/01/31 04:14:40;;;;;;;11.53;2.73;;;;;;;;;;5041878;28;20330;-54
2023/01/31 04:17:07;;;;;;;11.67;2.60;;;;;;;;;;5043817;28;20231;-53
2023/01/31 04:19:33;;;;;;;8.87;2.33;;;;;;;;;;5041633;28;20243;-52
2023/01/31 04:22:00;;;;;;;10.40;2.37;;;;;;;;;;5039287;28;20332;-53
2023/01/31 04:24:26;;;;;;;15.33;3.70;;;;;;;;;;5040991;28;20941;-54
2023/01/31 04:26:53;;;;;;;8.23;2.37;;;;;;;;;;5044320;28;20235;-54
2023/01/31 04:29:21;;;;;;;5.33;2.00;;;;;;;;;;5046669;28;20231;-53
2023/01/31 04:31:47;;;;;;;4.33;1.97;;;;;;;;;;5045171;28;20234;-53
2023/01/31 04:34:14;;;;;;;12.67;2.93;;;;;;;;;;5039660;28;20248;-52
2023/01/31 04:36:40;;;;;;;6.20;2.57;;;;;;;;;;5045405;28;20579;-54
2023/01/31 04:39:07;;;;;;;10.57;2.30;;;;;;;;;;5048773;28;20249;-53
2023/01/31 04:41:33;;;;;;;11.00;2.57;;;;;;;;;;5052058;28;20239;-53
2023/01/31 04:44:00;;;;;;;6.50;2.40;;;;;;;;;;5054067;28;20253;-53
2023/01/31 04:46:28;;;;;;;11.63;2.23;;;;;;;;;;5056623;28;20235;-53
2023/01/31 04:48:55;;;;;;;6.40;1.73;;;;;;;;;;5057293;28;20231;-54
2023/01/31 04:51:21;;;;;;;10.67;3.27;;;;;;;;;;5054559;28;20241;-54
2023/01/31 04:53:48;;;;;;;10.57;3.00;;;;;;;;;;5043686;28;20337;-54
2023/01/31 04:56:14;;;;;;;9.23;2.37;;;;;;;;;;5051002;28;20315;-55
2023/01/31 04:58:42;;;;;;;9.17;2.30;;;;;;;;;;5047375;28;20314;-54
2023/01/31 05:01:08;;;;;;;8.27;2.60;;;;;;;;;;5052189;28;20269;-54
2023/01/31 05:03:36;;;;;;;11.23;3.03;;;;;;;;;;5051351;28;20732;-54
2023/01/31 05:06:03;;;;;;;9.43;2.73;;;;;;;;;;5044940;28;20239;-54
2023/01/31 05:08:29;;;;;;;8.97;3.03;;;;;;;;;;5052431;28;20274;-54
2023/01/31 05:11:00;;;;;;;11.70;3.30;;;;;;;;;;5051219;28;20234;-54
2023/01/31 05:13:26;;;;;;;11.00;2.93;;;;;;;;;;5042642;28;20235;-53
2023/01/31 05:15:53;;;;;;;13.43;3.10;;;;;;;;;;5053959;28;20235;-53
2023/01/31 05:18:20;;;;;;;12.37;2.37;;;;;;;;;;5050624;28;20240;-53
2023/01/31 05:20:48;;;;;;;6.83;2.13;;;;;;;;;;5042858;28;20222;-53
2023/01/31 05:23:15;;;;;;;5.60;1.93;;;;;;;;;;5041853;28;20957;-53
2023/01/31 05:25:42;;;;;;;4.97;2.43;;;;;;;;;;5042584;28;20235;-53
2023/01/31 05:28:08;;;;;;;10.03;2.73;;;;;;;;;;5043394;28;20250;-53
2023/01/31 05:30:36;;;;;;;13.63;2.33;;;;;;;;;;5040904;28;20245;-53
2023/01/31 05:33:02;;;;;;;9.33;2.60;;;;;;;;;;5046460;28;20242;-55
2023/01/31 05:35:29;;;;;;;6.17;2.37;;;;;;;;;;5041925;28;20720;-53
2023/01/31 05:37:57;;;;;;;11.43;2.87;;;;;;;;;;5041535;28;20319;-58
2023/01/31 05:40:24;;;;;;;16.30;2.80;;;;;;;;;;5042291;28;20235;-53
2023/01/31 05:42:53;;;;;;;9.97;2.70;;;;;;;;;;5041413;28;20301;-53
2023/01/31 05:45:20;;;;;;;15.30;2.43;;;;;;;;;;5040177;28;20232;-54
2023/01/31 05:47:47;;;;;;;7.03;2.17;;;;;;;;;;5037306;28;20252;-54
2023/01/31 05:50:13;;;;;;;6.43;2.13;;;;;;;;;;5039747;28;20235;-53
2023/01/31 05:52:40;;;;;;;8.87;3.13;;;;;;;;;;5040896;28;20228;-53
2023/01/31 05:55:08;;;;;;;10.40;2.23;;;;;;;;;;5044066;28;20759;-53
2023/01/31 05:57:34;;;;;;;9.30;3.03;;;;;;;;;;5039084;28;20748;-53
2023/01/31 06:00:01;;;;;;;5.33;2.27;;;;;;;;;;5038031;28;20713;-54
2023/01/31 06:02:28;;;;;;;7.33;2.97;;;;;;;;;;5039644;28;20283;-54
2023/01/31 06:04:57;;;;;;;18.40;2.57;;;;;;;;;;5041303;28;20243;-54
2023/01/31 06:07:24;;;;;;;13.43;1.90;;;;;;;;;;5038505;28;20232;-54
2023/01/31 06:09:50;;;;;;;8.80;2.67;;;;;;;;;;5041813;28;20228;-53
2023/01/31 06:12:18;;;;;;;12.63;3.87;;;;;;;;;;5041468;28;20766;-53
2023/01/31 06:14:45;;;;;;;12.57;2.63;;;;;;;;;;5041372;28;20241;-53
2023/01/31 06:17:12;;;;;;;11.30;2.50;;;;;;;;;;5040142;28;20793;-53
2023/01/31 06:19:38;;;;;;;7.10;2.13;;;;;;;;;;5043009;28;20576;-52
2023/01/31 06:22:05;;;;;;;11.07;2.50;;;;;;;;;;5042927;28;20330;-54
2023/01/31 06:24:32;;;;;;;9.90;3.00;;;;;;;;;;5041061;28;20926;-54
2023/01/31 06:26:58;;;;;;;10.83;2.63;;;;;;;;;;5042680;28;20234;-54
2023/01/31 06:29:26;;;;;;;4.17;1.90;;;;;;;;;;5042503;28;20296;-53
2023/01/31 06:31:53;;;;;;;10.80;2.60;;;;;;;;;;5045781;28;20262;-54
2023/01/31 06:34:20;;;;;;;7.83;2.60;;;;;;;;;;5044926;28;20725;-52
2023/01/31 06:36:46;;;;;;;9.13;3.00;;;;;;;;;;5044008;28;20234;-54
2023/01/31 06:39:13;;;;;;;5.47;1.73;;;;;;;;;;5045308;28;20245;-53
2023/01/31 06:41:40;;;;;;;10.17;2.10;;;;;;;;;;5044831;28;20258;-52
2023/01/31 06:44:07;;;;;;;12.03;3.73;;;;;;;;;;5039353;28;20227;-55
2023/01/31 06:46:35;;;;;;;8.30;2.37;;;;;;;;;;5039604;28;20802;-53
2023/01/31 06:49:02;;;;;;;13.77;2.63;;;;;;;;;;5042228;28;20329;-54
2023/01/31 06:51:28;;;;;;;6.10;1.93;;;;;;;;;;5039230;28;20232;-54
2023/01/31 06:53:56;;;;;;;6.97;1.90;;;;;;;;;;5035388;28;20226;-53
2023/01/31 06:56:22;;;;;;;6.03;2.10;;;;;;;;;;5039791;28;20228;-54
2023/01/31 06:58:49;;;;;;;9.57;2.33;;;;;;;;;;5036334;28;20648;-53
2023/01/31 07:01:15;;;;;;;4.93;2.23;;;;;;;;;;5037368;28;20243;-54
2023/01/31 07:03:43;;;;;;;13.27;3.07;;;;;;;;;;5036974;28;21309;-55
2023/01/31 07:06:10;;;;;;;11.80;2.57;;;;;;;;;;5040868;28;20288;-54
2023/01/31 07:08:37;;;;;;;7.97;2.63;;;;;;;;;;5039336;28;20235;-53
2023/01/31 07:11:04;;;;;;;8.40;2.50;;;;;;;;;;5042071;28;20700;-54
2023/01/31 07:13:30;;;;;;;7.03;2.60;;;;;;;;;;5045911;28;20711;-53
2023/01/31 07:15:57;;;;;;;11.47;2.50;;;;;;;;;;5047448;28;20235;-53
2023/01/31 07:18:23;;;;;;;6.87;2.33;;;;;;;;;;5045470;28;20365;-53
2023/01/31 07:20:51;;;;;;;4.97;2.63;;;;;;;;;;5044589;28;20326;-54
2023/01/31 07:23:18;;;;;;;6.30;2.10;;;;;;;;;;5043919;28;20287;-54
2023/01/31 07:25:45;;;;;;;7.00;2.03;;;;;;;;;;5046852;28;20230;-54
2023/01/31 07:28:11;;;;;;;11.57;2.00;;;;;;;;;;5046472;28;20234;-53
2023/01/31 07:30:38;;;;;;;6.83;2.70;;;;;;;;;;5043629;28;20238;-53
2023/01/31 07:33:05;;;;;;;12.03;2.70;;;;;;;;;;5044103;28;20250;-55
2023/01/31 07:35:32;;;;;;;6.43;2.10;;;;;;;;;;5042525;28;20333;-53
2023/01/31 07:37:59;;;;;;;7.10;2.73;;;;;;;;;;5038711;28;20334;-53
2023/01/31 07:40:26;;;;;;;10.87;3.33;;;;;;;;;;5044166;28;20382;-53
2023/01/31 07:42:57;;;;;;;13.97;2.50;;;;;;;;;;5034851;28;20241;-53
2023/01/31 07:45:24;;;;;;;6.10;2.27;;;;;;;;;;5045801;28;20751;-54
2023/01/31 07:47:50;;;;;;;7.00;2.13;;;;;;;;;;5041905;28;20331;-53
2023/01/31 07:50:17;;;;;;;7.60;3.67;;;;;;;;;;5046279;28;20265;-52
2023/01/31 07:52:43;;;;;;;9.60;2.30;;;;;;;;;;5040305;28;20729;-54
2023/01/31 07:55:11;;;;;;;17.80;3.13;;;;;;;;;;5044202;28;20270;-52
2023/01/31 07:57:38;;;;;;;9.60;2.83;;;;;;;;;;5043124;28;20318;-53
2023/01/31 08:03:31;;;;;;;10.50;2.03;;;;;;;;;;5041942;28;20280;-54
2023/01/31 08:05:36;;;;;;;9.43;2.23;;;;;;;;;;5043228;28;20305;-54
2023/01/31 08:08:10;;;;;;;8.83;3.20;;;;;;;;;;5044522;28;20246;-53
2023/01/31 08:10:38;;;;;;;6.40;2.53;;;;;;;;;;5044486;28;20235;-56
2023/01/31 08:13:05;;;;;;;11.33;3.00;;;;;;;;;;5044843;28;20251;-54
2023/01/31 08:15:31;;;;;;;8.27;2.63;;;;;;;;;;5043057;28;20759;-53
2023/01/31 08:17:58;;;;;;;9.17;2.27;;;;;;;;;;5043390;28;20228;-54
2023/01/31 08:20:24;;;;;;;11.13;2.73;;;;;;;;;;5044525;28;20231;-52
2023/01/31 08:22:50;;;;;;;4.67;2.27;;;;;;;;;;5043885;28;20227;-53
2023/01/31 08:25:17;;;;;;;13.57;3.27;;;;;;;;;;5047039;28;20230;-54
2023/01/31 08:27:45;;;;;;;10.23;3.07;;;;;;;;;;5040247;28;20317;-53
2023/01/31 08:30:12;;;;;;;9.80;3.00;;;;;;;;;;5040667;28;20777;-53
2023/01/31 08:32:38;;;;;;;5.80;2.43;;;;;;;;;;5045342;28;20261;-53
2023/01/31 08:35:06;;;;;;;9.20;2.87;;;;;;;;;;5043271;28;20239;-53
2023/01/31 08:37:33;;;;;;;12.90;3.00;;;;;;;;;;5049471;28;20613;-57
2023/01/31 08:40:01;;;;;;;14.87;2.37;;;;;;;;;;5046885;28;20239;-53
2023/01/31 08:42:27;;;;;;;4.70;1.97;;;;;;;;;;5043255;28;20292;-55
2023/01/31 08:44:55;;;;;;;9.57;2.60;;;;;;;;;;5038851;28;20239;-53
2023/01/31 08:47:22;;;;;;;13.00;2.67;;;;;;;;;;5039553;28;20318;-55
2023/01/31 08:49:48;;;;;;;8.27;2.17;;;;;;;;;;5048001;28;20715;-53
2023/01/31 08:52:15;;;;;;;9.57;1.97;;;;;;;;;;5044455;28;20241;-53
2023/01/31 08:54:41;;;;;;;9.83;3.13;;;;;;;;;;5043941;28;20235;-54
2023/01/31 08:57:08;;;;;;;10.83;2.87;;;;;;;;;;5044399;28;20236;-53
2023/01/31 08:59:35;;;;;;;9.50;2.57;;;;;;;;;;5046539;28;20235;-53
2023/01/31 09:02:03;;;;;;;11.87;2.93;;;;;;;;;;5044695;28;20242;-54
2023/01/31 09:04:29;;;;;;;7.87;2.60;;;;;;;;;;5042230;28;20234;-53
2023/01/31 09:06:56;;;;;;;15.30;3.77;;;;;;;;;;5043606;28;20264;-54
2023/01/31 09:09:24;;;;;;;9.93;2.63;;;;;;;;;;5043187;28;20232;-54
2023/01/31 09:11:51;;;;;;;8.97;2.30;;;;;;;;;;5046111;28;20235;-55
2023/01/31 09:14:18;;;;;;;14.87;3.17;;;;;;;;;;5043079;28;20716;-54
2023/01/31 09:16:45;;;;;;;7.63;2.83;;;;;;;;;;5043804;28;20624;-54
2023/01/31 09:19:13;;;;;;;10.53;2.80;;;;;;;;;;5042529;28;20728;-54
2023/01/31 09:21:39;;;;;;;9.30;2.87;;;;;;;;;;5042935;28;20824;-54
2023/01/31 09:24:06;;;;;;;10.33;3.13;;;;;;;;;;5042245;28;20247;-54
2023/01/31 09:26:33;;;;;;;8.80;2.80;;;;;;;;;;5042574;28;20249;-54
2023/01/31 09:29:00;;;;;;;8.57;2.43;;;;;;;;;;5043319;28;20231;-56
2023/01/31 09:31:26;;;;;;;7.60;3.33;;;;;;;;;;5039971;28;20672;-53
2023/01/31 09:33:53;;;;;;;9.97;2.70;;;;;;;;;;5048722;28;20234;-53
2023/01/31 09:36:23;;;;;;;11.43;2.83;;;;;;;;;;5038104;28;20768;-53
2023/01/31 09:38:53;;;;;;;11.03;3.63;;;;;;;;;;5038321;28;20992;-54
2023/01/31 09:41:23;;;;;;;12.47;3.53;;;;;;;;;;5042524;28;20236;-53
2023/01/31 09:43:51;;;;;;;9.13;2.97;;;;;;;;;;5036359;28;20293;-57
2023/01/31 09:46:20;;;;;;;10.63;3.07;;;;;;;;;;5042199;28;20783;-54
2023/01/31 09:48:49;;;;;;;10.33;2.57;;;;;;;;;;5037089;28;20224;-54
2023/01/31 09:51:16;;;;;;;13.10;3.70;;;;;;;;;;5041094;28;20330;-53
2023/01/31 09:53:44;;;;;;;11.47;2.60;;;;;;;;;;5044147;28;20246;-54
2023/01/31 09:56:19;;;;;;;7.30;3.10;;;;;;;;;;5032608;28;20990;-54
2023/01/31 09:58:52;;;;;;;8.23;2.40;;;;;;;;;;5048501;28;20493;-53
2023/01/31 10:01:23;;;;;;;11.57;3.63;;;;;;;;;;5046681;28;20231;-55
2023/01/31 10:04:02;;;;;;;14.67;3.53;;;;;;;;;;5050394;28;20295;-54
2023/01/31 10:06:32;;;;;;;11.10;2.87;;;;;;;;;;5044321;28;20322;-53
2023/01/31 10:09:03;;;;;;;11.53;3.17;;;;;;;;;;5041450;28;20230;-53
2023/01/31 10:11:34;;;;;;;9.40;2.87;;;;;;;;;;5047434;28;20301;-54
2023/01/31 10:14:04;;;;;;;13.73;3.10;;;;;;;;;;5050586;28;20254;-54
2023/01/31 10:16:33;;;;;;;11.67;3.03;;;;;;;;;;5048795;28;20228;-54
2023/01/31 10:19:02;;;;;;;10.00;3.03;;;;;;;;;;5047132;28;20220;-58
2023/01/31 10:21:31;;;;;;;11.17;2.87;;;;;;;;;;5045743;28;20231;-54
2023/01/31 10:24:02;;;;;;;9.90;2.90;;;;;;;;;;5041685;28;20251;-53
2023/01/31 10:26:29;;;;;;;14.87;2.80;;;;;;;;;;5046322;28;20307;-52
2023/01/31 10:29:00;;;;;;;11.60;3.23;;;;;;;;;;5033949;28;20355;-53
2023/01/31 10:31:28;;;;;;;10.33;3.20;;;;;;;;;;5010978;28;20240;-53
2023/01/31 10:33:56;;;;;;;10.87;3.10;;;;;;;;;;5014255;28;20237;-54
2023/01/31 10:36:26;;;;;;;9.73;2.23;;;;;;;;;;5011181;28;20243;-54
2023/01/31 10:38:57;;;;;;;8.83;3.03;;;;;;;;;;5010668;28;20312;-53
2023/01/31 10:41:31;;;;;;;8.57;2.50;;;;;;;;;;5013445;28;20248;-52
2023/01/31 10:44:00;;;;;;;10.40;2.40;;;;;;;;;;5008145;28;20231;-53
2023/01/31 10:46:26;;;;;;;12.87;3.00;;;;;;;;;;5014697;28;20247;-58
2023/01/31 10:48:53;;;;;;;7.40;2.63;;;;;;;;;;5015305;28;21199;-52
2023/01/31 10:51:29;;;;;;;12.67;2.40;;;;;;;;;;5014136;28;20319;-53
2023/01/31 10:54:11;;;;;;;11.53;3.17;;;;;;;;;;5015815;28;20625;-53
2023/01/31 10:56:41;;;;;;;7.70;2.80;;;;;;;;;;5015183;28;20235;-54
2023/01/31 10:59:12;;;;;;;9.43;2.77;;;;;;;;;;5013115;28;20251;-54
2023/01/31 11:01:39;;;;;;;14.37;2.90;;;;;;;;;;5020662;28;20289;-52
2023/01/31 11:04:16;;;;;;;13.37;3.37;;;;;;;;;;5018859;28;20263;-54
2023/01/31 11:06:42;;;;;;;9.40;3.20;;;;;;;;;;5021336;28;20398;-53
2023/01/31 11:09:10;;;;;;;11.83;2.83;;;;;;;;;;5044534;28;20238;-53
2023/01/31 11:11:52;;;;;;;13.70;3.37;;;;;;;;;;5046484;28;20258;-52
2023/01/31 11:14:20;;;;;;;10.73;3.87;;;;;;;;;;5044462;28;20227;-54
2023/01/31 11:16:47;;;;;;;15.17;3.73;;;;;;;;;;5051773;28;20223;-53
2023/01/31 11:19:17;;;;;;;11.03;3.13;;;;;;;;;;5052372;28;20322;-53
2023/01/31 11:21:49;;;;;;;11.63;3.63;;;;;;;;;;5051324;28;20232;-53
2023/01/31 11:24:17;;;;;;;8.60;3.27;;;;;;;;;;5054136;28;20325;-53
2023/01/31 11:26:52;;;;;;;15.53;4.87;;;;;;;;;;5059153;28;20234;-53
2023/01/31 11:29:22;;;;;;;10.47;3.53;;;;;;;;;;5046745;28;20303;-53
2023/01/31 11:31:49;;;;;;;10.33;3.47;;;;;;;;;;5045520;28;20335;-53
2023/01/31 11:34:20;;;;;;;11.37;4.30;;;;;;;;;;5047369;28;20254;-52
2023/01/31 11:36:46;;;;;;;14.77;4.10;;;;;;;;;;5034985;28;20363;-53
2023/01/31 11:39:26;;;;;;;11.13;3.70;;;;;;;;;;5048215;28;20240;-53
2023/01/31 11:41:53;;;;;;;12.23;4.03;;;;;;;;;;5053578;28;20277;-53
2023/01/31 11:44:21;;;;;;;15.80;4.83;;;;;;;;;;5040330;28;20231;-53
2023/01/31 11:46:50;;;;;;;10.47;4.50;;;;;;;;;;5046827;28;20228;-53
2023/01/31 11:49:21;;;;;;;16.40;4.87;;;;;;;;;;5042340;28;20733;-53
2023/01/31 11:51:48;;;;;;;15.83;4.47;;;;;;;;;;5038548;28;21137;-53
2023/01/31 11:54:17;;;;;;;12.63;4.70;;;;;;;;;;5048786;28;20239;-53
2023/01/31 11:56:45;;;;;;;13.70;4.97;;;;;;;;;;5046998;28;20773;-52
2023/01/31 11:59:15;;;;;;;8.93;4.17;;;;;;;;;;5042632;28;20258;-53
2023/01/31 12:01:46;;;;;;;10.60;4.10;;;;;;;;;;5044171;28;20241;-54
2023/01/31 12:04:15;;;;;;;12.17;3.90;;;;;;;;;;5052871;28;20235;-53
2023/01/31 12:06:42;;;;;;;14.67;4.57;;;;;;;;;;5048785;28;20235;-53
2023/01/31 12:09:19;;;;;;;13.70;4.00;;;;;;;;;;5045894;28;20231;-53
2023/01/31 12:11:50;;;;;;;12.57;4.07;;;;;;;;;;5045965;28;20220;-53
2023/01/31 12:14:18;;;;;;;13.63;5.70;;;;;;;;;;5043669;28;20297;-55
2023/01/31 12:16:46;;;;;;;17.23;5.80;;;;;;;;;;5040479;28;20266;-57
2023/01/31 12:19:21;;;;;;;13.03;4.90;;;;;;;;;;5040855;28;20276;-55
2023/01/31 12:21:54;;;;;;;16.17;5.90;;;;;;;;;;5043967;28;20323;-57
2023/01/31 12:24:29;;;;;;;9.77;5.63;;;;;;;;;;5043898;28;20335;-55
2023/01/31 12:26:57;;;;;;;12.37;5.33;;;;;;;;;;5047838;28;20326;-57
2023/01/31 12:29:36;;;;;;;10.03;5.50;;;;;;;;;;5047084;28;20241;-56
2023/01/31 12:32:09;;;;;;;15.27;5.37;;;;;;;;;;5048195;28;20231;-56
2023/01/31 12:35:02;;;;;;;15.53;6.07;;;;;;;;;;5044267;28;20231;-56
2023/01/31 12:37:33;;;;;;;17.70;5.50;;;;;;;;;;5045620;28;20263;-56
2023/01/31 12:40:05;;;;;;;12.50;4.57;;;;;;;;;;5048641;28;20232;-55
2023/01/31 12:42:42;;;;;;;18.43;6.17;;;;;;;;;;5044046;28;20582;-56
2023/01/31 12:45:15;;;;;;;13.87;5.87;;;;;;;;;;5047568;28;20235;-55
2023/01/31 12:47:52;;;;;;;13.80;7.10;;;;;;;;;;5044690;28;20305;-55
2023/01/31 12:50:28;;;;;;;20.73;5.57;;;;;;;;;;5044151;28;20227;-55
2023/01/31 12:53:06;;;;;;;15.07;7.37;;;;;;;;;;5043031;28;20317;-58
2023/01/31 12:55:36;;;;;;;13.20;5.50;;;;;;;;;;5044099;28;20251;-55
2023/01/31 12:58:13;;;;;;;18.77;6.13;;;;;;;;;;5040212;28;20931;-55
2023/01/31 13:00:43;;;;;;;13.73;6.73;;;;;;;;;;5042333;28;20226;-55
2023/01/31 13:03:22;;;;;;;12.67;6.70;;;;;;;;;;5047812;28;20262;-55
2023/01/31 13:05:51;;;;;;;10.80;6.30;;;;;;;;;;5043933;28;20226;-55
2023/01/31 13:08:19;;;;;;;14.60;6.53;;;;;;;;;;5042983;28;20234;-54
2023/01/31 13:10:48;;;;;;;17.93;8.30;;;;;;;;;;5034155;28;20230;-54
2023/01/31 13:13:17;;;;;;;12.97;7.13;;;;;;;;;;5032945;28;20310;-54
2023/01/31 13:15:46;;;;;;;15.47;8.47;;;;;;;;;;5043723;28;20243;-54
2023/01/31 13:18:13;;;;;;;14.37;7.67;;;;;;;;;;5049019;28;20231;-52
2023/01/31 13:20:42;;;;;;;21.77;8.47;;;;;;;;;;5054517;28;20295;-51
2023/01/31 13:23:11;;;;;;;17.87;8.13;;;;;;;;;;5055782;28;20303;-53
2023/01/31 13:25:39;;;;;;;22.37;9.73;;;;;;;;;;5056911;28;20300;-53
2023/01/31 13:28:11;;;;;;;15.03;9.00;;;;;;;;;;5041604;28;20331;-52
2023/01/31 13:30:41;;;;;;;15.33;8.70;;;;;;;;;;5044490;28;20318;-52
2023/01/31 13:33:14;;;;;;;14.37;7.87;;;;;;;;;;5041330;28;20346;-52
2023/01/31 13:35:43;;;;;;;15.13;8.03;;;;;;;;;;5044027;28;20226;-53
2023/01/31 13:38:13;;;;;;;16.80;8.00;;;;;;;;;;5045271;28;20230;-53
2023/01/31 13:40:44;;;;;;;21.17;8.60;;;;;;;;;;5043064;28;20265;-56
2023/01/31 13:43:13;;;;;;;15.60;9.00;;;;;;;;;;5046331;28;20317;-52
2023/01/31 13:45:44;;;;;;;11.27;7.30;;;;;;;;;;5048566;28;20318;-52
2023/01/31 13:48:19;;;;;;;17.83;8.37;;;;;;;;;;5049369;28;20823;-53
2023/01/31 13:50:49;;;;;;;14.23;7.70;;;;;;;;;;5047646;28;20223;-53
2023/01/31 13:53:19;;;;;;;12.10;7.00;;;;;;;;;;5051504;28;20291;-52
2023/01/31 13:55:46;;;;;;;10.27;7.80;;;;;;;;;;5042343;28;20334;-52
2023/01/31 13:58:15;;;;;;;11.97;6.87;;;;;;;;;;5043656;28;20235;-53
2023/01/31 14:00:42;;;;;;;13.93;6.83;;;;;;;;;;5045837;28;20226;-52
2023/01/31 14:03:10;;;;;;;11.97;8.07;;;;;;;;;;5040723;28;20265;-52
2023/01/31 14:05:55;;;;;;;7.27;6.47;;;;;;;;;;5043419;28;20276;-52
2023/01/31 14:08:28;;;;;;;13.40;7.00;;;;;;;;;;5041305;28;20245;-52
2023/01/31 14:10:55;;;;;;;11.47;7.13;;;;;;;;;;5040798;28;20246;-54
2023/01/31 14:13:37;;;;;;;9.40;6.63;;;;;;;;;;5030824;28;20241;-52
2023/01/31 14:16:03;;;;;;;8.57;6.47;;;;;;;;;;5037902;28;20254;-53
2023/01/31 14:18:40;;;;;;;8.83;6.10;;;;;;;;;;5035338;28;20227;-52
2023/01/31 14:21:39;;;;;;;8.20;6.40;;;;;;;;;;5035992;28;20749;-53
2023/01/31 14:24:18;;;;;;;10.13;6.13;;;;;;;;;;5043261;28;20231;-53
2023/01/31 14:26:51;;;;;;;10.20;6.50;;;;;;;;;;5036969;28;20237;-54
2023/01/31 14:29:19;;;;;;;9.73;6.50;;;;;;;;;;5039611;28;20234;-54
2023/01/31 14:31:46;;;;;;;10.70;7.27;;;;;;;;;;5042894;28;20252;-53
2023/01/31 14:34:15;;;;;;;7.50;6.53;;;;;;;;;;5043130;28;20249;-53
2023/01/31 14:36:47;;;;;;;6.83;5.60;;;;;;;;;;5033412;28;20242;-53
2023/01/31 14:39:32;;;;;;;8.70;7.17;;;;;;;;;;5041309;28;20312;-55
2023/01/31 14:42:08;;;;;;;7.17;6.47;;;;;;;;;;5039665;28;20235;-54
2023/01/31 14:44:38;;;;;;;8.43;6.80;;;;;;;;;;5041535;28;20238;-53
2023/01/31 14:47:16;;;;;;;7.47;6.40;;;;;;;;;;5045099;28;20239;-53
2023/01/31 14:50:06;;;;;;;7.83;7.03;;;;;;;;;;5044941;28;20226;-53
2023/01/31 14:52:38;;;;;;;11.07;6.70;;;;;;;;;;5016305;28;20240;-54
2023/01/31 14:55:20;;;;;;;9.83;6.77;;;;;;;;;;5042263;28;20240;-54